| time (UTC) | temp F | wind direction | speed knots | gust knots | rain 1hr in | rain 24hr in | rain mn in | humidity % | barometer mb |
| 20260506221853 | 46 | 351 | 3.5 | 7.0 | 0.00 | 0.41 | 0.39 | 93 | 1008.1 |
| 20260506220852 | 46 | 2 | 3.5 | 6.1 | 0.00 | 0.41 | 0.39 | 92 | 1008.1 |
| 20260506215851 | 46 | 335 | 2.6 | 7.0 | 0.00 | 0.41 | 0.39 | 92 | 1008.1 |
| 20260506214851 | 45 | 336 | 3.5 | 7.0 | 0.00 | 0.41 | 0.39 | 92 | 1008.1 |
| 20260506213850 | 45 | 353 | 4.3 | 7.0 | 0.00 | 0.41 | 0.39 | 94 | 1008.1 |
| 20260506212818 | 45 | 9 | 2.6 | 7.0 | 0.00 | 0.41 | 0.39 | 94 | 1007.8 |
| 20260506211747 | 45 | 355 | 3.5 | 7.0 | 0.00 | 0.41 | 0.39 | 94 | 1007.8 |
| 20260506210746 | 45 | 354 | 3.5 | 7.0 | 0.01 | 0.41 | 0.39 | 94 | 1007.8 |
| 20260506205745 | 45 | 10 | 4.3 | 6.1 | 0.01 | 0.41 | 0.39 | 94 | 1007.8 |
| 20260506204745 | 45 | 4 | 3.5 | 9.6 | 0.01 | 0.41 | 0.39 | 94 | 1008.1 |
| 20260506203744 | 45 | 339 | 4.3 | 9.6 | 0.01 | 0.41 | 0.39 | 94 | 1008.1 |
| 20260506202743 | 45 | 348 | 5.2 | 9.6 | 0.02 | 0.41 | 0.39 | 94 | 1008.1 |
| 20260506201742 | 45 | 352 | 4.3 | 8.7 | 0.02 | 0.41 | 0.39 | 94 | 1008.1 |
| 20260506200741 | 45 | 344 | 5.2 | 9.6 | 0.01 | 0.40 | 0.38 | 94 | 1007.8 |
| 20260506195710 | 45 | 351 | 5.2 | 9.6 | 0.01 | 0.41 | 0.38 | 94 | 1007.8 |
| 20260506194709 | 45 | 333 | 5.2 | 8.7 | 0.01 | 0.41 | 0.38 | 94 | 1007.8 |
| 20260506193708 | 45 | 336 | 5.2 | 7.8 | 0.01 | 0.41 | 0.38 | 94 | 1007.8 |
| 20260506192708 | 45 | 335 | 5.2 | 8.7 | 0.00 | 0.40 | 0.37 | 94 | 1007.8 |
| 20260506191707 | 44 | 337 | 5.2 | 8.7 | 0.01 | 0.40 | 0.37 | 95 | 1007.8 |
| 20260506190706 | 44 | 335 | 6.1 | 8.7 | 0.01 | 0.40 | 0.37 | 95 | 1007.5 |
| 20260506185706 | 44 | 342 | 4.3 | 8.7 | 0.01 | 0.40 | 0.37 | 95 | 1007.8 |
| 20260506184705 | 44 | 335 | 7.0 | 8.7 | 0.01 | 0.41 | 0.37 | 95 | 1007.8 |
| 20260506183704 | 44 | 332 | 4.3 | 6.1 | 0.01 | 0.41 | 0.37 | 95 | 1007.8 |
| 20260506182704 | 44 | 353 | 1.7 | 7.0 | 0.00 | 0.41 | 0.37 | 95 | 1008.1 |
| 20260506181703 | 44 | 1 | 4.3 | 7.8 | 0.01 | 0.46 | 0.36 | 95 | 1008.1 |
| 20260506180702 | 44 | 1 | 4.3 | 9.6 | 0.01 | 0.46 | 0.36 | 95 | 1008.1 |
| 20260506175702 | 44 | 2 | 5.2 | 9.6 | 0.02 | 0.46 | 0.36 | 95 | 1008.5 |
| 20260506174701 | 44 | 335 | 7.0 | 8.7 | 0.02 | 0.46 | 0.36 | 95 | 1008.5 |
| 20260506173700 | 44 | 330 | 5.2 | 7.8 | 0.03 | 0.46 | 0.36 | 95 | 1008.5 |
| 20260506172629 | 44 | 345 | 4.3 | 7.8 | 0.03 | 0.46 | 0.36 | 95 | 1008.8 |
| 20260506171628 | 44 | 336 | 4.3 | 7.8 | 0.04 | 0.45 | 0.35 | 95 | 1008.5 |
| 20260506170627 | 44 | 7 | 5.2 | 7.8 | 0.05 | 0.45 | 0.35 | 95 | 1008.8 |
| 20260506165627 | 44 | 4 | 5.2 | 7.8 | 0.05 | 0.44 | 0.34 | 95 | 1008.5 |
| 20260506164626 | 44 | 11 | 3.5 | 7.0 | 0.06 | 0.44 | 0.34 | 95 | 1008.8 |
| 20260506163625 | 44 | 349 | 3.5 | 7.0 | 0.06 | 0.43 | 0.33 | 95 | 1009.1 |
| 20260506162625 | 44 | 345 | 3.5 | 8.7 | 0.07 | 0.43 | 0.33 | 95 | 1009.1 |
| 20260506161624 | 44 | 8 | 4.3 | 9.6 | 0.06 | 0.41 | 0.31 | 95 | 1008.8 |
| 20260506160623 | 44 | 8 | 6.1 | 12.2 | 0.07 | 0.40 | 0.30 | 95 | 1009.1 |
| 20260506155623 | 44 | 2 | 6.1 | 12.2 | 0.07 | 0.39 | 0.29 | 95 | 1009.1 |
| 20260506154622 | 44 | 353 | 5.2 | 11.3 | 0.07 | 0.38 | 0.28 | 95 | 1009.1 |
| 20260506153621 | 44 | 346 | 7.0 | 13.0 | 0.07 | 0.37 | 0.27 | 95 | 1009.5 |
| 20260506152621 | 44 | 352 | 6.1 | 13.0 | 0.05 | 0.35 | 0.25 | 94 | 1009.5 |
| 20260506151518 | 44 | 357 | 4.3 | 12.2 | 0.04 | 0.34 | 0.24 | 94 | 1009.5 |
| 20260506150447 | 44 | 333 | 5.2 | 9.6 | 0.04 | 0.33 | 0.23 | 94 | 1009.1 |
| 20260506145446 | 44 | 330 | 5.2 | 10.4 | 0.04 | 0.32 | 0.22 | 94 | 1009.1 |
| 20260506144446 | 44 | 358 | 6.1 | 10.4 | 0.04 | 0.31 | 0.21 | 94 | 1008.8 |
| 20260506143445 | 45 | 340 | 5.2 | 10.4 | 0.03 | 0.30 | 0.20 | 95 | 1009.1 |
| 20260506142444 | 45 | 348 | 5.2 | 10.4 | 0.03 | 0.30 | 0.20 | 94 | 1009.1 |
| 20260506141443 | 45 | 339 | 4.3 | 9.6 | 0.02 | 0.29 | 0.20 | 94 | 1009.1 |
| 20260506140443 | 45 | 337 | 6.1 | 7.8 | 0.02 | 0.29 | 0.19 | 93 | 1009.1 |
| 20260506135442 | 45 | 333 | 3.5 | 8.7 | 0.02 | 0.28 | 0.18 | 93 | 1009.1 |
| 20260506134410 | 45 | 349 | 3.5 | 8.7 | 0.02 | 0.27 | 0.17 | 93 | 1009.1 |
| 20260506133410 | 45 | 2 | 5.2 | 8.7 | 0.02 | 0.27 | 0.17 | 92 | 1008.8 |
| 20260506132409 | 45 | 4 | 5.2 | 8.7 | 0.03 | 0.27 | 0.17 | 92 | 1009.1 |
| 20260506131408 | 45 | 3 | 5.2 | 8.7 | 0.04 | 0.27 | 0.17 | 91 | 1009.5 |
| 20260506130408 | 45 | 14 | 2.6 | 7.8 | 0.04 | 0.27 | 0.17 | 91 | 1009.5 |
| 20260506125336 | 45 | 358 | 4.3 | 7.8 | 0.04 | 0.26 | 0.16 | 91 | 1009.5 |
| 20260506124335 | 45 | 9 | 4.3 | 8.7 | 0.04 | 0.25 | 0.15 | 90 | 1009.5 |
| 20260506123335 | 46 | 3 | 6.1 | 8.7 | 0.04 | 0.25 | 0.15 | 90 | 1009.5 |
| 20260506122334 | 46 | 25 | 2.6 | 8.7 | 0.04 | 0.24 | 0.14 | 90 | 1009.5 |
| 20260506121333 | 46 | 15 | 4.3 | 10.4 | 0.04 | 0.23 | 0.13 | 89 | 1009.5 |
| 20260506120333 | 47 | 355 | 7.0 | 10.4 | 0.04 | 0.23 | 0.13 | 88 | 1009.8 |
| 20260506115332 | 47 | 357 | 5.2 | 7.8 | 0.03 | 0.22 | 0.12 | 90 | 1010.2 |
| 20260506114331 | 47 | 357 | 3.5 | 6.1 | 0.02 | 0.21 | 0.11 | 91 | 1009.8 |
| 20260506113331 | 47 | 18 | 1.7 | 5.2 | 0.03 | 0.21 | 0.11 | 91 | 1009.8 |
| 20260506112330 | 47 | 351 | 2.6 | 3.5 | 0.02 | 0.20 | 0.10 | 91 | 1009.8 |
| 20260506111329 | 47 | 5 | 0.9 | 0.9 | 0.01 | 0.19 | 0.09 | 91 | 1009.5 |
| 20260506110226 | 47 | 83 | 0.9 | 1.7 | 0.01 | 0.19 | 0.09 | 91 | 1009.1 |
| 20260506105154 | 47 | 77 | 0.0 | 1.7 | 0.01 | 0.19 | 0.09 | 90 | 1009.1 |
| 20260506104154 | 47 | 96 | 0.9 | 2.6 | 0.01 | 0.19 | 0.09 | 90 | 1008.8 |
| 20260506103153 | 47 | 98 | 0.0 | 3.5 | 0.01 | 0.18 | 0.08 | 89 | 1009.5 |
| 20260506102153 | 48 | 57 | 0.9 | 3.5 | 0.01 | 0.18 | 0.08 | 90 | 1009.1 |
| 20260506101050 | 48 | 64 | 0.9 | 2.6 | 0.02 | 0.18 | 0.08 | 92 | 1009.1 |
| 20260506100049 | 48 | 95 | 0.0 | 3.5 | 0.05 | 0.18 | 0.08 | 92 | 1009.5 |
| 20260506095048 | 48 | 69 | 1.7 | 3.5 | 0.05 | 0.18 | 0.08 | 91 | 1008.8 |
| 20260506094048 | 48 | 49 | 0.0 | 3.5 | 0.05 | 0.18 | 0.08 | 90 | 1009.1 |
| 20260506093047 | 49 | 46 | 1.7 | 3.5 | 0.04 | 0.17 | 0.07 | 89 | 1009.1 |
| 20260506092016 | 49 | 95 | 0.9 | 5.2 | 0.04 | 0.17 | 0.07 | 88 | 1009.1 |
| 20260506091015 | 50 | 68 | 1.7 | 5.2 | 0.03 | 0.16 | 0.06 | 87 | 1009.1 |
| 20260506090014 | 50 | 55 | 1.7 | 3.5 | 0.01 | 0.13 | 0.03 | 86 | 1009.1 |
| 20260506085014 | 50 | 51 | 0.0 | 1.7 | 0.01 | 0.13 | 0.03 | 83 | 1009.5 |
| 20260506084013 | 50 | 109 | 0.9 | 2.6 | 0.01 | 0.13 | 0.03 | 85 | 1009.1 |
| 20260506083012 | 50 | 105 | 0.9 | 5.2 | 0.01 | 0.13 | 0.03 | 85 | 1009.1 |
| 20260506082011 | 51 | 27 | 2.6 | 7.0 | 0.01 | 0.13 | 0.03 | 84 | 1009.1 |
| 20260506080939 | 51 | 21 | 2.6 | 7.0 | 0.01 | 0.13 | 0.03 | 83 | 1009.1 |
| 20260506072935 | 52 | 103 | 0.9 | 5.2 | 0.00 | 0.12 | 0.02 | 86 | 1008.5 |
| 20260506071935 | 52 | 70 | 0.0 | 5.2 | 0.00 | 0.12 | 0.02 | 85 | 1009.1 |
| 20260506070934 | 52 | 16 | 0.9 | 1.7 | 0.00 | 0.12 | 0.02 | 87 | 1008.8 |
| 20260506061931 | 53 | 84 | 1.7 | 3.5 | 0.00 | 0.12 | 0.02 | 91 | 1008.5 |
| 20260506060930 | 53 | 108 | 0.9 | 1.7 | 0.00 | 0.12 | 0.02 | 92 | 1008.8 |
| 20260506050824 | 53 | 117 | 0.0 | 1.7 | 0.02 | 0.12 | 0.02 | 92 | 1008.8 |
| 20260506044823 | 53 | 114 | 0.9 | 3.5 | 0.03 | 0.12 | 0.02 | 92 | 1009.1 |
| 20260506043822 | 54 | 87 | 1.7 | 3.5 | 0.03 | 0.12 | 0.02 | 91 | 1008.1 |
| 20260506042821 | 54 | 111 | 0.9 | 3.5 | 0.02 | 0.11 | 0.01 | 89 | 1008.5 |
| 20260506041821 | 54 | 112 | 1.7 | 3.5 | 0.02 | 0.11 | 0.01 | 89 | 1008.1 |
| 20260506040820 | 54 | 127 | 0.9 | 2.6 | 0.01 | 0.10 | 0.00 | 90 | 1008.1 |
| 20260506035819 | 54 | 136 | 0.9 | 2.6 | 0.02 | 0.10 | 0.10 | 87 | 1008.1 |
| 20260506034716 | 55 | 129 | 1.7 | 4.3 | 0.01 | 0.09 | 0.09 | 82 | 1007.8 |
| 20260506033715 | 56 | 115 | 0.9 | 6.1 | 0.01 | 0.09 | 0.09 | 76 | 1007.8 |
| 20260506032715 | 57 | 328 | 2.6 | 6.1 | 0.01 | 0.09 | 0.09 | 74 | 1007.5 |
| 20260506031714 | 57 | 354 | 0.9 | 11.3 | 0.01 | 0.09 | 0.09 | 74 | 1007.5 |
| 20260506030642 | 58 | 297 | 4.3 | 11.3 | 0.01 | 0.09 | 0.09 | 70 | 1007.1 |
| 20260506025642 | 57 | 291 | 2.6 | 7.0 | 0.00 | 0.08 | 0.08 | 73 | 1007.5 |
| 20260506024641 | 58 | 292 | 5.2 | 7.8 | 0.00 | 0.08 | 0.08 | 69 | 1007.1 |
| 20260506023609 | 57 | 268 | 1.7 | 7.8 | 0.00 | 0.08 | 0.08 | 70 | 1007.1 |
| 20260506022608 | 58 | 296 | 5.2 | 7.8 | 0.00 | 0.08 | 0.08 | 69 | 1006.8 |
| 20260506021608 | 58 | 295 | 5.2 | 10.4 | 0.00 | 0.08 | 0.08 | 69 | 1007.1 |
| 20260506020607 | 59 | 301 | 5.2 | 10.4 | 0.00 | 0.08 | 0.08 | 69 | 1007.1 |
| 20260506015535 | 59 | 296 | 7.0 | 13.9 | 0.00 | 0.08 | 0.08 | 70 | 1007.1 |
| 20260506014504 | 61 | 292 | 8.7 | 16.5 | 0.00 | 0.08 | 0.08 | 69 | 1007.1 |
| 20260506013503 | 60 | 295 | 13.0 | 16.5 | 0.00 | 0.08 | 0.08 | 76 | 1006.8 |
| 20260506012431 | 61 | 87 | 0.9 | 3.5 | 0.00 | 0.08 | 0.08 | 80 | 1006.1 |
| 20260506011430 | 62 | 141 | 0.9 | 0.9 | 0.00 | 0.08 | 0.08 | 83 | 1005.4 |
| 20260506010429 | 63 | 141 | 0.0 | 0.9 | 0.00 | 0.08 | 0.08 | 82 | 1005.4 |
| 20260506005429 | 64 | 141 | 0.0 | 0.9 | 0.00 | 0.08 | 0.08 | 80 | 1005.1 |
| 20260506004429 | 64 | 197 | 0.9 | 0.9 | 0.00 | 0.08 | 0.08 | 79 | 1005.1 |
| 20260506003428 | 64 | 165 | 0.9 | 1.7 | 0.00 | 0.08 | 0.08 | 79 | 1004.7 |
| 20260506002427 | 64 | 151 | 0.9 | 1.7 | 0.00 | 0.08 | 0.08 | 78 | 1004.7 |
| 20260506001427 | 64 | 145 | 0.9 | 4.3 | 0.00 | 0.08 | 0.08 | 77 | 1004.4 |
| 20260506000426 | 65 | 140 | 0.9 | 4.3 | 0.00 | 0.08 | 0.08 | 77 | 1004.4 |
| 20260505235425 | 65 | 185 | 0.9 | 2.6 | 0.00 | 0.08 | 0.08 | 78 | 1004.4 |
| 20260505234424 | 65 | 231 | 0.9 | 2.6 | 0.00 | 0.08 | 0.08 | 76 | 1004.1 |
| 20260505233424 | 65 | 236 | 0.9 | 2.6 | 0.00 | 0.08 | 0.08 | 77 | 1004.1 |
| 20260505232423 | 65 | 195 | 0.9 | 2.6 | 0.00 | 0.08 | 0.08 | 77 | 1004.1 |
| 20260505231422 | 64 | 242 | 0.9 | 1.7 | 0.00 | 0.08 | 0.08 | 79 | 1004.4 |
| 20260505230421 | 64 | 95 | 0.0 | 1.7 | 0.00 | 0.08 | 0.08 | 75 | 1003.7 |
| 20260505225350 | 66 | 30 | 0.0 | 1.7 | 0.00 | 0.08 | 0.08 | 72 | 1003.7 |
| 20260505224349 | 67 | 255 | 0.0 | 1.7 | 0.00 | 0.08 | 0.08 | 73 | 1003.7 |
| 20260505223348 | 67 | 124 | 0.0 | 0.9 | 0.00 | 0.08 | 0.08 | 74 | 1003.4 |
| 20260505222317 | 67 | 121 | 0.9 | 1.7 | 0.00 | 0.08 | 0.08 | 72 | 1003.7 |